Time;durP1;ratioP1;P1;durP2;ratioP2;P2;SDS_P1;SDS_P2;PMS_P1;PMS_P2;Temp;Humidity;BMP_temperature;BMP_pressure;BME280_temperature;BME280_humidity;BME280_pressure;Samples;Min_cycle;Max_cycle;Signal;HPM_P1;HPM_P2
2022/06/03 00:01:54;;;;;;;14.93;10.98;;;12.70;99.90;;;;;;5095210;28;20047;-69
2022/06/03 00:04:59;;;;;;;16.98;11.43;;;12.70;99.90;;;;;;5095079;28;20135;-69
2022/06/03 00:07:48;;;;;;;16.83;10.35;;;12.70;99.90;;;;;;5094833;28;20055;-69
2022/06/03 00:10:24;;;;;;;;;;;12.70;99.90;;;;;;5094947;28;20368;-69
2022/06/03 00:12:58;;;;;;;15.68;11.02;;;12.70;99.90;;;;;;5093858;28;20363;-69
2022/06/03 00:16:03;;;;;;;13.88;9.85;;;12.70;99.90;;;;;;5094849;28;20085;-69
2022/06/03 00:18:41;;;;;;;11.02;8.98;;;12.70;99.90;;;;;;5094906;28;20093;-69
2022/06/03 00:21:09;;;;;;;11.07;9.77;;;12.70;99.90;;;;;;5077503;28;20066;-69
2022/06/03 00:23:57;;;;;;;16.90;11.38;;;12.70;99.90;;;;;;5076983;28;20036;-69
2022/06/03 00:26:25;;;;;;;14.40;8.60;;;12.70;99.90;;;;;;5094330;28;20048;-69
2022/06/03 00:28:57;;;;;;;11.35;8.40;;;12.70;99.90;;;;;;5093540;28;20040;-69
2022/06/03 00:31:29;;;;;;;11.23;8.07;;;12.70;99.90;;;;;;5094627;28;20448;-69
2022/06/03 00:34:27;;;;;;;10.60;8.57;;;12.60;99.90;;;;;;5077497;28;20036;-69
2022/06/03 00:36:57;;;;;;;11.30;8.43;;;12.60;99.90;;;;;;5093016;28;20040;-69
2022/06/03 00:39:30;;;;;;;12.18;8.75;;;12.60;99.90;;;;;;5093369;28;20433;-69
2022/06/03 00:42:01;;;;;;;9.73;7.20;;;12.60;99.90;;;;;;5094213;28;20086;-69
2022/06/03 00:44:46;;;;;;;15.55;8.43;;;12.50;99.90;;;;;;5095146;28;20040;-69
2022/06/03 00:47:43;;;;;;;11.13;7.53;;;12.50;99.90;;;;;;5092210;28;20040;-69
2022/06/03 00:50:31;;;;;;;9.63;7.72;;;12.50;99.90;;;;;;5084054;28;20047;-69
2022/06/03 00:53:16;;;;;;;12.52;8.68;;;12.50;99.90;;;;;;5095309;28;20040;-69
2022/06/03 00:55:54;;;;;;;10.02;7.80;;;12.40;99.90;;;;;;5093866;28;20487;-69
2022/06/03 00:59:02;;;;;;;11.32;7.47;;;12.40;99.90;;;;;;5093078;28;20486;-69
2022/06/03 01:01:52;;;;;;;13.02;8.40;;;12.40;99.90;;;;;;5085763;28;20040;-69
2022/06/03 01:04:35;;;;;;;18.25;8.80;;;12.30;99.90;;;;;;5094783;28;20158;-69
2022/06/03 01:07:08;;;;;;;13.75;7.82;;;12.30;99.90;;;;;;5093465;28;20040;-69
2022/06/03 01:09:51;;;;;;;10.65;7.07;;;12.20;99.90;;;;;;5092547;28;20047;-69
2022/06/03 01:12:36;;;;;;;13.30;9.02;;;12.20;99.90;;;;;;5092597;28;20048;-69
2022/06/03 01:15:40;;;;;;;12.77;7.95;;;12.20;99.90;;;;;;5093743;28;20139;-69
2022/06/03 01:18:36;;;;;;;13.75;8.52;;;12.20;99.90;;;;;;5092700;28;20391;-69
2022/06/03 01:22:01;;;;;;;11.07;7.53;;;12.20;99.90;;;;;;5061895;28;20047;-69
2022/06/03 01:24:48;;;;;;;11.82;7.68;;;12.10;99.90;;;;;;5054805;28;20052;-69
2022/06/03 01:27:52;;;;;;;12.25;8.55;;;12.10;99.90;;;;;;5071812;28;20056;-69
2022/06/03 01:30:53;;;;;;;11.50;6.70;;;12.10;99.90;;;;;;5091380;28;20120;-69
2022/06/03 01:33:29;;;;;;;13.00;7.70;;;12.10;99.90;;;;;;5093746;28;20059;-69
2022/06/03 01:36:26;;;;;;;11.85;7.07;;;12.10;99.90;;;;;;5076348;28;20051;-69
2022/06/03 01:39:15;;;;;;;8.98;7.03;;;12.10;99.90;;;;;;5077009;28;20502;-69
2022/06/03 01:42:15;;;;;;;14.63;6.93;;;12.10;99.90;;;;;;5092943;28;20089;-69
2022/06/03 01:44:58;;;;;;;12.30;7.25;;;12.00;99.90;;;;;;5093692;28;20040;-69
2022/06/03 01:47:25;;;;;;;14.98;7.03;;;11.90;99.90;;;;;;5094123;28;20036;-69
2022/06/03 01:50:16;;;;;;;12.82;7.72;;;11.90;99.90;;;;;;5093703;28;20094;-69
2022/06/03 01:53:12;;;;;;;13.02;8.20;;;11.90;99.90;;;;;;5092454;28;20065;-69
2022/06/03 01:56:00;;;;;;;13.23;8.30;;;12.00;99.90;;;;;;5092868;28;20448;-69
2022/06/03 01:58:29;;;;;;;11.75;8.35;;;11.90;99.90;;;;;;5095177;28;20052;-69
2022/06/03 02:00:58;;;;;;;;;;;11.90;99.90;;;;;;5098568;28;20040;-69
2022/06/03 02:03:46;;;;;;;15.85;8.63;;;12.00;99.90;;;;;;5097188;28;19946;-69
2022/06/03 02:06:41;;;;;;;11.55;9.20;;;12.00;99.90;;;;;;5097504;28;20040;-69
2022/06/03 02:09:26;;;;;;;15.82;10.25;;;12.00;99.90;;;;;;5098247;28;20051;-69
2022/06/03 02:12:05;;;;;;;14.30;11.10;;;12.00;99.90;;;;;;5097436;28;20483;-69
2022/06/03 02:15:25;;;;;;;12.33;10.80;;;12.00;99.90;;;;;;5097894;28;20036;-69
2022/06/03 02:18:40;;;;;;;17.65;12.45;;;12.00;99.90;;;;;;5095210;28;20051;-69
2022/06/03 02:21:40;;;;;;;15.95;12.43;;;12.00;99.90;;;;;;5095040;28;20456;-69
2022/06/03 02:24:27;;;;;;;19.98;12.20;;;12.10;99.90;;;;;;5096790;28;20040;-69
2022/06/03 02:27:26;;;;;;;13.90;11.60;;;12.10;99.90;;;;;;5096035;28;20040;-69
2022/06/03 02:30:26;;;;;;;15.93;11.83;;;12.10;99.90;;;;;;5096331;28;20055;-69
2022/06/03 02:33:34;;;;;;;18.02;13.13;;;12.20;99.90;;;;;;5096942;28;20055;-69
2022/06/03 02:36:31;;;;;;;17.50;12.25;;;12.20;99.90;;;;;;5095210;28;20055;-69
2022/06/03 02:39:13;;;;;;;19.13;12.77;;;12.20;99.90;;;;;;5096925;28;20044;-68
2022/06/03 02:41:52;;;;;;;18.80;11.73;;;12.30;99.90;;;;;;5096822;28;20039;-69
2022/06/03 02:44:25;;;;;;;14.77;12.10;;;12.20;99.90;;;;;;5097810;28;20055;-69
2022/06/03 02:47:26;;;;;;;18.13;13.18;;;12.20;99.90;;;;;;5097488;28;20272;-69
2022/06/03 02:49:59;;;;;;;15.30;12.25;;;12.30;99.90;;;;;;5095585;28;20064;-69
2022/06/03 02:52:44;;;;;;;13.55;11.85;;;12.20;99.90;;;;;;5096275;28;20040;-69
2022/06/03 02:55:21;;;;;;;13.30;11.00;;;12.20;99.90;;;;;;5097277;28;20051;-69
2022/06/03 02:58:03;;;;;;;19.15;12.63;;;12.20;99.90;;;;;;5096027;28;20040;-69
2022/06/03 03:01:08;;;;;;;18.23;11.95;;;12.20;99.90;;;;;;5096694;28;20048;-68
2022/06/03 03:04:22;;;;;;;15.85;11.05;;;12.20;99.90;;;;;;5096374;28;20040;-69
2022/06/03 03:07:20;;;;;;;14.70;11.93;;;12.20;99.90;;;;;;5095266;28;20048;-69
2022/06/03 03:10:14;;;;;;;19.08;12.77;;;12.20;99.90;;;;;;5095532;28;20406;-69
2022/06/03 03:12:59;;;;;;;14.70;10.95;;;12.10;99.90;;;;;;5079034;28;20052;-69
2022/06/03 03:15:59;;;;;;;14.90;11.57;;;12.10;99.90;;;;;;5097032;28;20364;-69
2022/06/03 03:18:41;;;;;;;15.32;10.85;;;12.10;99.90;;;;;;5095705;28;20051;-69
2022/06/03 03:21:26;;;;;;;12.85;9.93;;;12.10;99.90;;;;;;5096102;28;20050;-69
2022/06/03 03:24:15;;;;;;;13.30;10.18;;;12.10;99.90;;;;;;5097091;28;20044;-69
2022/06/03 03:27:07;;;;;;;14.90;9.80;;;12.10;99.90;;;;;;5095340;28;20066;-69
2022/06/03 03:30:12;;;;;;;13.95;9.52;;;12.10;99.90;;;;;;5095722;28;20047;-69
2022/06/03 03:32:47;;;;;;;12.40;10.18;;;12.10;99.90;;;;;;5084443;28;20040;-69
2022/06/03 03:35:35;;;;;;;13.38;9.95;;;12.20;99.90;;;;;;5094361;28;20047;-69
2022/06/03 03:38:21;;;;;;;15.95;10.15;;;12.20;99.90;;;;;;5096288;28;20062;-69
2022/06/03 03:40:53;;;;;;;15.68;10.80;;;12.20;99.90;;;;;;5096207;28;20048;-69
2022/06/03 03:43:58;;;;;;;13.25;9.60;;;12.20;99.90;;;;;;5095348;28;20048;-68
2022/06/03 03:47:02;;;;;;;12.57;8.63;;;12.20;99.90;;;;;;5094455;28;20055;-69
2022/06/03 03:49:38;;;;;;;11.45;10.18;;;12.20;99.90;;;;;;5095150;28;20042;-69
2022/06/03 03:52:33;;;;;;;17.02;11.13;;;12.20;99.90;;;;;;5095234;28;20046;-69
2022/06/03 03:55:28;;;;;;;14.43;10.05;;;12.20;99.90;;;;;;5094222;28;20482;-69
2022/06/03 03:58:14;;;;;;;13.73;9.48;;;12.10;99.90;;;;;;5095038;28;20395;-69
2022/06/03 04:01:15;;;;;;;11.30;9.70;;;12.20;99.90;;;;;;5095037;28;20502;-69
2022/06/03 04:03:55;;;;;;;11.27;9.00;;;12.20;99.90;;;;;;5090955;28;20040;-69
2022/06/03 04:07:02;;;;;;;15.88;9.63;;;12.10;99.90;;;;;;5094897;28;20085;-69
2022/06/03 04:09:58;;;;;;;10.98;9.70;;;12.10;99.90;;;;;;5077688;28;20048;-70
2022/06/03 04:12:37;;;;;;;14.35;9.52;;;12.10;99.90;;;;;;5077757;28;20379;-69
2022/06/03 04:15:32;;;;;;;12.02;9.52;;;12.00;99.90;;;;;;5077168;28;20054;-69
2022/06/03 04:18:17;;;;;;;12.30;8.30;;;12.00;99.90;;;;;;5094462;28;20044;-69
2022/06/03 04:20:53;;;;;;;10.30;7.93;;;11.90;99.90;;;;;;5095272;28;20053;-69
2022/06/03 04:23:47;;;;;;;11.90;8.27;;;11.90;99.90;;;;;;5095315;28;20063;-69
2022/06/03 04:26:45;;;;;;;11.30;7.88;;;11.90;99.90;;;;;;5093412;28;20105;-69
2022/06/03 04:29:39;;;;;;;13.40;8.25;;;12.00;99.90;;;;;;5093570;28;20055;-69
2022/06/03 04:32:33;;;;;;;12.10;7.97;;;11.90;99.90;;;;;;5094172;28;20062;-69
2022/06/03 04:35:28;;;;;;;12.48;9.20;;;11.90;99.90;;;;;;5095125;28;20456;-69
2022/06/03 04:38:15;;;;;;;11.32;8.25;;;11.90;99.90;;;;;;5094569;28;20044;-69
2022/06/03 04:40:54;;;;;;;11.32;8.40;;;11.90;99.90;;;;;;5090278;28;20043;-69
2022/06/03 04:43:40;;;;;;;10.90;7.47;;;11.90;99.90;;;;;;5094256;28;20040;-69
2022/06/03 04:46:16;;;;;;;15.38;7.90;;;11.90;99.90;;;;;;5093904;28;20460;-68
2022/06/03 04:49:01;;;;;;;9.27;8.13;;;11.90;99.90;;;;;;5095178;28;20078;-69
2022/06/03 04:51:37;;;;;;;7.97;7.00;;;12.10;99.90;;;;;;5095150;28;20048;-69
2022/06/03 04:54:25;;;;;;;9.70;7.63;;;12.40;99.90;;;;;;5093974;28;20040;-69
2022/06/03 04:57:14;;;;;;;9.55;7.00;;;12.80;99.90;;;;;;5094499;28;20352;-69
2022/06/03 05:00:07;;;;;;;8.82;6.47;;;13.10;99.90;;;;;;5094058;28;20048;-69
2022/06/03 05:02:49;;;;;;;7.50;5.90;;;13.70;99.90;;;;;;5093873;28;20440;-69
2022/06/03 05:05:37;;;;;;;9.30;7.00;;;14.40;99.90;;;;;;5093832;28;20043;-69
2022/06/03 05:08:30;;;;;;;8.45;6.47;;;15.10;99.90;;;;;;5092763;28;20065;-69
2022/06/03 05:10:59;;;;;;;7.35;6.07;;;15.30;99.90;;;;;;5076301;28;20044;-69
2022/06/03 05:13:51;;;;;;;12.73;7.38;;;15.30;99.90;;;;;;5094850;28;20040;-69
2022/06/03 05:16:32;;;;;;;9.80;6.43;;;15.70;99.90;;;;;;5094027;28;20059;-69
2022/06/03 05:18:59;;;;;;;7.95;6.43;;;16.00;99.90;;;;;;5093648;28;20453;-69
2022/06/03 05:21:44;;;;;;;11.65;6.40;;;16.50;99.90;;;;;;5093562;28;20395;-69
2022/06/03 05:24:56;;;;;;;9.40;7.65;;;16.80;99.90;;;;;;5093957;28;20386;-69
2022/06/03 05:27:34;;;;;;;8.27;5.97;;;17.00;99.90;;;;;;5082749;28;20054;-69
2022/06/03 05:30:13;;;;;;;13.35;6.68;;;17.20;99.90;;;;;;5093172;28;20039;-70
2022/06/03 05:33:10;;;;;;;11.20;6.63;;;17.50;99.90;;;;;;5093766;28;20067;-69
2022/06/03 05:35:55;;;;;;;10.23;5.47;;;17.60;99.90;;;;;;5094561;28;20047;-69
2022/06/03 05:38:33;;;;;;;8.75;6.00;;;17.90;99.90;;;;;;5093649;28;20047;-69
2022/06/03 05:42:23;;;;;;;10.90;5.88;;;18.10;99.90;;;;;;5093063;28;20123;-69
2022/06/03 05:44:11;;;;;;;9.38;5.72;;;18.20;99.90;;;;;;5093278;28;20382;-69
2022/06/03 05:47:01;;;;;;;11.00;6.72;;;18.00;99.90;;;;;;5077352;28;20044;-70
2022/06/03 05:49:35;;;;;;;11.45;5.78;;;17.90;99.90;;;;;;5093034;28;20036;-69
2022/06/03 05:52:07;;;;;;;10.07;6.45;;;17.80;99.90;;;;;;5093086;28;20048;-69
2022/06/03 05:54:39;;;;;;;10.30;6.35;;;17.80;99.90;;;;;;5092403;28;20046;-69
2022/06/03 05:57:30;;;;;;;11.80;7.35;;;17.70;99.90;;;;;;5094099;28;20059;-69
2022/06/03 06:00:20;;;;;;;9.45;6.63;;;17.50;99.90;;;;;;5079255;28;20044;-69
2022/06/03 06:03:08;;;;;;;7.28;6.15;;;17.20;99.90;;;;;;5076339;28;20048;-69
2022/06/03 06:05:41;;;;;;;13.13;7.40;;;17.00;99.90;;;;;;5078627;28;20494;-69
2022/06/03 06:08:30;;;;;;;15.75;7.85;;;16.80;99.90;;;;;;5092995;28;20487;-69
2022/06/03 06:11:09;;;;;;;12.43;7.57;;;16.60;99.90;;;;;;5092898;28;20051;-70
2022/06/03 06:13:39;;;;;;;14.27;8.30;;;16.50;99.90;;;;;;5092553;28;20045;-69
2022/06/03 06:16:17;;;;;;;10.73;7.03;;;16.50;99.90;;;;;;5093447;28;20067;-69
2022/06/03 06:19:08;;;;;;;11.10;6.65;;;16.40;99.90;;;;;;5091774;28;20040;-69
2022/06/03 06:21:59;;;;;;;18.02;9.45;;;16.20;99.90;;;;;;5092087;28;20054;-69
2022/06/03 06:24:35;;;;;;;10.45;7.45;;;16.10;99.90;;;;;;5093147;28;20048;-69
2022/06/03 06:27:13;;;;;;;11.25;8.05;;;16.00;99.90;;;;;;5094028;28;20044;-69
2022/06/03 06:30:02;;;;;;;13.50;7.63;;;16.00;99.90;;;;;;5094139;28;20367;-69
2022/06/03 06:33:07;;;;;;;14.98;8.63;;;16.00;99.90;;;;;;5092341;28;20463;-69
2022/06/03 06:35:55;;;;;;;10.70;8.45;;;16.20;99.90;;;;;;5092959;28;20040;-69
2022/06/03 06:38:33;;;;;;;15.35;8.38;;;16.30;99.90;;;;;;5093690;28;20476;-69
2022/06/03 06:41:19;;;;;;;14.15;8.20;;;16.40;99.90;;;;;;5092790;28;20048;-69
2022/06/03 06:44:01;;;;;;;12.07;9.48;;;16.40;99.90;;;;;;5092824;28;20471;-69
2022/06/03 06:46:56;;;;;;;15.52;8.65;;;16.40;99.90;;;;;;5063222;28;20050;-69
2022/06/03 06:49:38;;;;;;;15.38;8.75;;;16.40;99.90;;;;;;5096430;28;20472;-69
2022/06/03 06:52:34;;;;;;;11.23;7.95;;;16.60;99.90;;;;;;5080574;28;20052;-69
2022/06/03 06:55:11;;;;;;;14.00;8.15;;;16.60;99.90;;;;;;5096234;28;20376;-69
2022/06/03 06:57:47;;;;;;;17.50;9.77;;;16.60;99.90;;;;;;5097332;28;20077;-69
2022/06/03 07:00:16;;;;;;;12.20;7.95;;;16.60;99.90;;;;;;5095863;28;20035;-69
2022/06/03 07:02:47;;;;;;;13.18;8.20;;;16.70;99.90;;;;;;5094926;28;20472;-69
2022/06/03 07:05:53;;;;;;;13.13;9.32;;;16.90;99.90;;;;;;5078388;28;20047;-69
2022/06/03 07:08:26;;;;;;;11.95;7.90;;;17.00;99.90;;;;;;5084632;28;20051;-69
2022/06/03 07:11:05;;;;;;;13.70;8.30;;;17.10;99.90;;;;;;5095852;28;20039;-69
2022/06/03 07:13:42;;;;;;;17.75;9.10;;;17.30;99.90;;;;;;5078534;28;20047;-69
2022/06/03 07:16:15;;;;;;;11.68;7.85;;;17.30;99.90;;;;;;5095133;28;20463;-69
2022/06/03 07:21:33;;;;;;;12.48;7.70;;;17.20;99.90;;;;;;5097007;28;20043;-69
2022/06/03 07:24:05;;;;;;;11.00;8.52;;;17.40;99.90;;;;;;5077936;28;20050;-68
2022/06/03 07:26:39;;;;;;;12.35;8.52;;;17.50;99.90;;;;;;5095742;28;20048;-68
2022/06/03 07:29:17;;;;;;;16.83;8.40;;;17.60;99.90;;;;;;5095278;28;20044;-68
2022/06/03 07:31:53;;;;;;;17.35;8.73;;;17.80;99.90;;;;;;5095588;28;20398;-69
2022/06/03 07:34:32;;;;;;;15.70;9.48;;;17.80;99.90;;;;;;5095272;28;20043;-68
2022/06/03 07:37:06;;;;;;;17.23;8.73;;;17.80;99.90;;;;;;5079807;28;20046;-68
2022/06/03 07:40:40;;;;;;;12.27;9.38;;;17.70;99.90;;;;;;5096508;28;20363;-68
2022/06/03 07:43:10;;;;;;;12.20;8.18;;;17.60;99.90;;;;;;5060544;28;20048;-69
2022/06/03 07:45:40;;;;;;;10.85;7.05;;;17.70;99.90;;;;;;5056817;28;20144;-69
2022/06/03 07:48:23;;;;;;;10.88;7.28;;;17.90;99.90;;;;;;5089571;28;20531;-69
2022/06/03 07:51:04;;;;;;;13.25;7.90;;;18.10;99.90;;;;;;5094144;28;20055;-69
2022/06/03 07:53:46;;;;;;;13.38;8.10;;;18.20;99.90;;;;;;5095193;28;20452;-69
2022/06/03 07:56:21;;;;;;;12.48;8.45;;;18.30;99.90;;;;;;5094960;28;20044;-68
2022/06/03 07:58:51;;;;;;;14.13;8.00;;;18.30;99.90;;;;;;5094276;28;20122;-68
2022/06/03 08:01:33;;;;;;;15.25;7.95;;;18.30;99.90;;;;;;5094188;28;20036;-69
2022/06/03 08:04:01;;;;;;;10.43;7.47;;;18.30;99.90;;;;;;5095099;28;20043;-68
2022/06/03 08:12:12;;;;;;;14.35;7.30;;;18.60;99.90;;;;;;5094198;28;20040;-69
2022/06/03 08:14:39;;;;;;;8.00;6.13;;;18.70;99.90;;;;;;5094119;28;20040;-69
2022/06/03 08:17:07;;;;;;;11.93;7.47;;;18.80;99.90;;;;;;5094400;28;20376;-69
2022/06/03 08:19:35;;;;;;;12.65;7.00;;;18.90;99.90;;;;;;5076982;28;20044;-69
2022/06/03 08:22:04;;;;;;;9.23;6.53;;;19.00;99.90;;;;;;5077021;28;20475;-69
2022/06/03 08:24:34;;;;;;;16.50;6.75;;;19.00;99.90;;;;;;5093663;28;20071;-69
2022/06/03 08:27:06;;;;;;;14.18;7.10;;;19.20;99.90;;;;;;5076774;28;20484;-69
2022/06/03 08:29:57;;;;;;;12.63;6.22;;;19.20;99.90;;;;;;5076737;28;20051;-69
2022/06/03 08:32:32;;;;;;;9.77;6.85;;;19.40;99.90;;;;;;5088371;28;20126;-69
2022/06/03 08:35:00;;;;;;;13.20;6.80;;;19.50;99.90;;;;;;5094104;28;20040;-69
2022/06/03 08:37:28;;;;;;;13.45;6.57;;;19.60;99.90;;;;;;5093020;28;20051;-69
2022/06/03 08:39:58;;;;;;;10.73;6.28;;;19.70;99.90;;;;;;5094569;28;20048;-69
2022/06/03 08:42:43;;;;;;;9.80;6.10;;;19.90;99.90;;;;;;5095043;28;20044;-69
2022/06/03 08:45:47;;;;;;;10.57;6.30;;;19.90;99.90;;;;;;5095112;28;20375;-69
2022/06/03 08:48:15;;;;;;;9.43;6.30;;;20.00;99.90;;;;;;5094948;28;20101;-69
2022/06/03 08:50:49;;;;;;;11.80;6.10;;;20.00;99.90;;;;;;5059753;28;20484;-69
2022/06/03 08:53:35;;;;;;;11.00;6.63;;;19.90;99.90;;;;;;5094981;28;20036;-69
2022/06/03 08:56:15;;;;;;;12.68;6.63;;;19.90;99.90;;;;;;5077821;28;20043;-69
2022/06/03 08:58:55;;;;;;;8.25;5.75;;;20.10;99.90;;;;;;5092721;28;20502;-69
2022/06/03 09:01:27;;;;;;;11.27;6.97;;;20.10;99.90;;;;;;5093888;28;20360;-69
2022/06/03 09:04:15;;;;;;;14.10;6.97;;;20.10;99.90;;;;;;5094671;28;20043;-69
2022/06/03 09:06:54;;;;;;;12.00;7.10;;;20.20;99.90;;;;;;5094846;28;20051;-69
2022/06/03 09:09:35;;;;;;;;;;;20.30;99.90;;;;;;5094566;28;20047;-70
2022/06/03 09:12:23;;;;;;;9.50;5.78;;;20.70;99.90;;;;;;5092795;28;19920;-69
2022/06/03 09:14:50;;;;;;;10.97;6.33;;;21.00;99.90;;;;;;5094185;28;20044;-69
2022/06/03 09:17:25;;;;;;;10.65;6.20;;;21.10;99.90;;;;;;5092758;28;20036;-69
2022/06/03 09:19:53;;;;;;;10.82;6.55;;;21.10;99.90;;;;;;5075733;28;20097;-70
2022/06/03 09:22:22;;;;;;;10.70;5.85;;;21.10;99.90;;;;;;5076260;28;20044;-69
2022/06/03 09:24:49;;;;;;;9.65;6.25;;;21.10;99.90;;;;;;5093215;28;20040;-70
2022/06/03 09:27:20;;;;;;;11.43;6.57;;;20.90;99.90;;;;;;5075866;28;20040;-70
2022/06/03 09:29:48;;;;;;;6.72;5.47;;;21.00;98.50;;;;;;5092375;28;20490;-70
2022/06/03 09:32:16;;;;;;;13.97;6.47;;;21.10;98.30;;;;;;5076054;28;20356;-69
2022/06/03 09:34:45;;;;;;;7.15;5.72;;;21.20;97.20;;;;;;5076467;28;20280;-70
2022/06/03 09:37:13;;;;;;;6.90;6.15;;;21.20;96.20;;;;;;5076040;28;20039;-69
2022/06/03 09:39:41;;;;;;;6.72;5.57;;;21.20;96.70;;;;;;5093368;28;20521;-69
2022/06/03 09:42:08;;;;;;;10.90;6.50;;;21.50;94.40;;;;;;5093017;28;20079;-69
2022/06/03 09:44:35;;;;;;;9.77;5.93;;;21.60;96.50;;;;;;5093306;28;20040;-69
2022/06/03 09:47:04;;;;;;;11.20;6.18;;;21.90;92.90;;;;;;5075766;28;20043;-69
2022/06/03 09:49:32;;;;;;;6.78;5.65;;;22.00;91.50;;;;;;5075610;28;20044;-69
2022/06/03 09:52:00;;;;;;;9.95;6.70;;;22.10;90.00;;;;;;5092123;28;20148;-70
2022/06/03 09:54:28;;;;;;;7.20;5.47;;;22.00;90.20;;;;;;5092080;28;20044;-69
2022/06/03 09:57:04;;;;;;;10.40;6.45;;;22.10;87.90;;;;;;5094127;28;20447;-69
2022/06/03 09:59:33;;;;;;;9.82;5.90;;;22.30;80.80;;;;;;5077536;28;20368;-69
2022/06/03 10:01:59;;;;;;;7.70;6.28;;;22.20;79.40;;;;;;5092154;28;20046;-69
2022/06/03 10:04:27;;;;;;;6.38;4.90;;;22.20;76.10;;;;;;5093249;28;20501;-69
2022/06/03 10:06:55;;;;;;;8.10;5.18;;;22.30;75.80;;;;;;5091952;28;20467;-69
2022/06/03 10:17:57;;;;;;;10.00;6.05;;;22.20;73.50;;;;;;5092034;28;20080;-70
2022/06/03 10:20:25;;;;;;;9.95;5.85;;;22.20;73.50;;;;;;5079567;28;20051;-70
2022/06/03 10:22:52;;;;;;;9.65;5.40;;;22.30;76.70;;;;;;5095688;28;20506;-70
2022/06/03 10:25:19;;;;;;;8.77;5.30;;;22.40;74.40;;;;;;5096557;28;20055;-70
2022/06/03 10:27:46;;;;;;;7.18;5.30;;;22.50;74.30;;;;;;5097763;28;20044;-70
2022/06/03 10:30:14;;;;;;;8.93;6.18;;;22.40;74.40;;;;;;5095548;28;20055;-70
2022/06/03 10:32:41;;;;;;;8.75;5.32;;;22.40;73.00;;;;;;5097605;28;20044;-70
2022/06/03 10:35:16;;;;;;;7.15;5.22;;;22.70;73.10;;;;;;5096704;28;20040;-70
2022/06/03 10:37:54;;;;;;;9.00;4.82;;;23.10;73.80;;;;;;5096989;28;20046;-70
2022/06/03 10:40:24;;;;;;;10.30;4.88;;;23.30;70.00;;;;;;5095454;28;20050;-70
2022/06/03 10:42:55;;;;;;;8.25;5.50;;;23.30;67.70;;;;;;5062755;28;20472;-69
2022/06/03 10:45:27;;;;;;;7.47;5.32;;;23.00;69.70;;;;;;5079138;28;20047;-70
2022/06/03 10:47:53;;;;;;;10.73;5.70;;;22.90;67.00;;;;;;5078849;28;20420;-70
2022/06/03 10:50:24;;;;;;;6.35;5.25;;;22.70;68.40;;;;;;5096341;28;20055;-70
2022/06/03 11:01:54;;;;;;;8.55;5.15;;;23.00;64.90;;;;;;5095299;28;20113;-70
2022/06/03 11:04:28;;;;;;;;;;;23.00;64.20;;;;;;5096674;28;20065;-69
2022/06/03 11:07:00;;;;;;;9.30;4.57;;;22.70;64.10;;;;;;5096467;28;19916;-69
2022/06/03 11:09:27;;;;;;;7.78;5.18;;;22.50;63.60;;;;;;5078855;28;20475;-70
2022/06/03 11:11:59;;;;;;;6.25;4.43;;;22.60;66.70;;;;;;5095270;28;20392;-70
2022/06/03 11:14:30;;;;;;;6.57;4.57;;;22.80;66.30;;;;;;5095639;28;20047;-70
2022/06/03 11:17:01;;;;;;;7.55;4.97;;;22.80;63.10;;;;;;5095983;28;20040;-70
2022/06/03 11:19:39;;;;;;;10.82;4.65;;;22.60;65.30;;;;;;5078772;28;20047;-71
2022/06/03 11:22:35;;;;;;;9.05;5.88;;;22.70;65.20;;;;;;5079078;28;20059;-70
2022/06/03 11:25:12;;;;;;;6.07;4.00;;;22.80;64.80;;;;;;5095951;28;20044;-69
2022/06/03 11:27:50;;;;;;;5.68;3.78;;;22.80;63.10;;;;;;5096938;28;20105;-70
2022/06/03 11:30:47;;;;;;;7.35;4.25;;;22.80;64.60;;;;;;5079394;28;20050;-70
2022/06/03 11:33:28;;;;;;;7.97;5.00;;;22.90;63.90;;;;;;5095843;28;20050;-69
2022/06/03 11:36:03;;;;;;;7.82;4.50;;;22.80;64.50;;;;;;5096792;28;20344;-70
2022/06/03 11:38:37;;;;;;;7.00;4.65;;;22.80;66.40;;;;;;5062869;28;20040;-70
2022/06/03 11:41:22;;;;;;;8.45;5.28;;;22.80;64.20;;;;;;5078259;28;20047;-69
2022/06/03 11:44:14;;;;;;;10.43;4.90;;;22.60;63.50;;;;;;5079082;28;20491;-70
2022/06/03 11:46:56;;;;;;;8.85;4.88;;;22.60;66.90;;;;;;5094837;28;20460;-70
2022/06/03 11:49:24;;;;;;;7.75;5.45;;;22.80;64.60;;;;;;5094803;28;20093;-70
2022/06/03 11:51:51;;;;;;;8.02;5.68;;;22.80;63.90;;;;;;5095048;28;20052;-70
2022/06/03 11:54:20;;;;;;;8.55;4.95;;;22.70;64.00;;;;;;5094475;28;20044;-70
2022/06/03 11:56:48;;;;;;;6.22;4.75;;;22.60;65.00;;;;;;5096097;28;20044;-70
2022/06/03 11:59:18;;;;;;;10.18;5.70;;;22.80;65.40;;;;;;5095002;28;20068;-69
2022/06/03 12:02:02;;;;;;;6.95;5.07;;;23.00;63.70;;;;;;5096625;28;20455;-69
2022/06/03 12:04:48;;;;;;;7.70;5.38;;;23.00;63.80;;;;;;5094442;28;20071;-70
2022/06/03 12:07:21;;;;;;;9.25;4.70;;;23.20;64.10;;;;;;5094754;28;20090;-69
2022/06/03 12:09:57;;;;;;;11.35;5.07;;;23.10;64.30;;;;;;5095334;28;20039;-69
2022/06/03 12:15:43;;;;;;;8.98;5.43;;;23.00;61.80;;;;;;5096357;28;20044;-70
2022/06/03 12:18:10;;;;;;;9.60;5.38;;;22.90;64.40;;;;;;5080127;28;20040;-70
2022/06/03 12:20:52;;;;;;;7.97;5.18;;;23.00;62.70;;;;;;5094794;28;20044;-70
2022/06/03 12:23:18;;;;;;;7.75;5.55;;;23.10;62.20;;;;;;5094820;28;20051;-70
2022/06/03 12:25:53;;;;;;;8.25;5.45;;;23.20;61.50;;;;;;5093632;28;20044;-70
2022/06/03 12:28:34;;;;;;;10.15;5.57;;;23.10;61.20;;;;;;5095448;28;20375;-69
2022/06/03 12:31:05;;;;;;;10.52;5.80;;;23.10;59.70;;;;;;5078137;28;20040;-70
2022/06/03 12:33:56;;;;;;;9.55;5.93;;;23.10;60.30;;;;;;5093490;28;20083;-69
2022/06/03 12:36:47;;;;;;;10.00;6.07;;;23.10;59.50;;;;;;5093831;28;20079;-70
2022/06/03 12:39:22;;;;;;;10.32;5.63;;;23.30;59.80;;;;;;5094283;28;20046;-70
2022/06/03 12:41:49;;;;;;;7.50;5.97;;;23.30;58.80;;;;;;5092880;28;20472;-70
2022/06/03 12:44:47;;;;;;;8.30;5.97;;;23.20;60.20;;;;;;5093530;28;20476;-70
2022/06/03 12:47:27;;;;;;;8.50;5.90;;;23.30;59.40;;;;;;5093086;28;20048;-70
2022/06/03 12:50:04;;;;;;;9.05;6.38;;;23.20;59.30;;;;;;5093238;28;20050;-69
2022/06/03 12:52:31;;;;;;;8.32;5.30;;;22.90;60.40;;;;;;5093177;28;20052;-69
2022/06/03 12:55:24;;;;;;;12.27;6.43;;;22.80;59.30;;;;;;5094395;28;20040;-69
2022/06/03 12:57:57;;;;;;;8.32;6.35;;;22.70;60.30;;;;;;5092857;28;20040;-69
2022/06/03 13:00:33;;;;;;;9.77;6.55;;;22.40;60.60;;;;;;5093454;28;20048;-69
2022/06/03 13:03:05;;;;;;;11.32;6.97;;;22.50;61.50;;;;;;5092994;28;20128;-69
2022/06/03 13:05:54;;;;;;;9.98;6.40;;;22.50;59.30;;;;;;5093229;28;20081;-69
2022/06/03 13:08:27;;;;;;;9.13;5.28;;;22.60;59.70;;;;;;5094809;28;20090;-69
2022/06/03 13:11:00;;;;;;;9.10;5.40;;;22.60;59.60;;;;;;5092580;28;20048;-69
2022/06/03 13:13:28;;;;;;;10.10;5.72;;;22.80;61.00;;;;;;5093942;28;20040;-69
2022/06/03 13:16:17;;;;;;;15.37;5.77;;;23.00;60.30;;;;;;5093785;28;20036;-70
2022/06/03 13:18:46;;;;;;;9.13;4.97;;;23.20;59.30;;;;;;5092720;28;20040;-70
2022/06/03 13:21:16;;;;;;;9.75;5.35;;;23.30;58.60;;;;;;5076047;28;20048;-70
2022/06/03 13:23:45;;;;;;;8.88;5.80;;;23.40;57.80;;;;;;5092942;28;20040;-69
2022/06/03 13:26:21;;;;;;;11.35;6.95;;;23.30;58.00;;;;;;5092621;28;20052;-69
2022/06/03 13:28:53;;;;;;;8.25;5.88;;;23.10;56.60;;;;;;5092688;28;20047;-69
2022/06/03 13:31:24;;;;;;;8.30;5.60;;;22.90;58.20;;;;;;5076979;28;20127;-69
2022/06/03 13:34:12;;;;;;;7.50;5.88;;;22.90;58.40;;;;;;5093617;28;20534;-69
2022/06/03 13:36:40;;;;;;;13.85;5.10;;;22.70;58.90;;;;;;5094336;28;20550;-69
2022/06/03 13:39:13;;;;;;;10.70;5.18;;;22.60;59.40;;;;;;5092234;28;20040;-69
2022/06/03 13:44:50;;;;;;;11.55;7.25;;;22.60;59.70;;;;;;5093638;28;20113;-76
2022/06/03 13:47:22;;;;;;;10.13;5.95;;;22.80;59.90;;;;;;5093414;28;20051;-68
2022/06/03 13:49:56;;;;;;;9.52;5.13;;;22.70;60.10;;;;;;5092909;28;20050;-65
2022/06/03 13:52:33;;;;;;;10.38;4.90;;;22.70;60.50;;;;;;5093395;28;20048;-68
2022/06/03 13:55:24;;;;;;;8.77;6.00;;;22.70;60.50;;;;;;5078676;28;20046;-69
2022/06/03 13:58:16;;;;;;;7.90;5.40;;;22.70;58.00;;;;;;5097669;28;20043;-67
2022/06/03 14:00:49;;;;;;;8.60;4.88;;;22.60;60.40;;;;;;5096500;28;20048;-66
2022/06/03 14:03:38;;;;;;;12.18;6.65;;;22.60;60.80;;;;;;5096407;28;20036;-67
2022/06/03 14:06:28;;;;;;;14.70;8.93;;;22.40;62.10;;;;;;5097090;28;20048;-66
2022/06/03 14:08:59;;;;;;;7.55;5.15;;;22.30;62.70;;;;;;5097257;28;20052;-66
2022/06/03 14:11:36;;;;;;;8.95;5.97;;;22.30;65.10;;;;;;5097171;28;20044;-67
2022/06/03 14:14:45;;;;;;;7.90;4.93;;;22.50;62.70;;;;;;5079937;28;20040;-66
2022/06/03 14:17:17;;;;;;;8.63;5.38;;;22.40;62.40;;;;;;5079364;28;20044;-65
2022/06/03 14:19:55;;;;;;;8.63;6.22;;;22.30;63.00;;;;;;5080315;28;20048;-66
2022/06/03 14:22:39;;;;;;;12.93;8.32;;;22.30;62.40;;;;;;5097015;28;20040;-67
2022/06/03 14:25:11;;;;;;;;;;;21.80;61.40;;;;;;5097046;28;20123;-67